Time;durP1;ratioP1;P1;durP2;ratioP2;P2;SDS_P1;SDS_P2;PMS_P1;PMS_P2;Temp;Humidity;BMP_temperature;BMP_pressure;BME280_temperature;BME280_humidity;BME280_pressure;Samples;Min_cycle;Max_cycle;Signal;HPM_P1;HPM_P2
2023/09/04 00:00:31;0.00;0.00;0.62;0.00;0.00;0.62;2.97;2.63;;;28.60;28.80;;;;;;2266083;61;20368;-56
2023/09/04 00:03:16;0.00;0.00;0.62;0.00;0.00;0.62;3.70;2.97;;;28.60;28.30;;;;;;2265840;61;20399;-56
2023/09/04 00:06:01;0.00;0.00;0.62;0.00;0.00;0.62;3.63;3.00;;;28.60;28.30;;;;;;2266364;61;20407;-56
2023/09/04 00:08:46;0.00;0.00;0.62;0.00;0.00;0.62;3.53;3.00;;;28.60;28.30;;;;;;2266409;61;20767;-55
2023/09/04 00:11:31;0.00;0.00;0.62;0.00;0.00;0.62;3.17;2.87;;;28.60;28.30;;;;;;2266545;61;20399;-54
2023/09/04 00:14:17;0.00;0.00;0.62;0.00;0.00;0.62;3.50;2.57;;;28.50;28.20;;;;;;2266067;61;20490;-52
2023/09/04 00:17:02;0.00;0.00;0.62;0.00;0.00;0.62;3.13;2.70;;;28.50;28.20;;;;;;2266599;61;20966;-56
2023/09/04 00:19:47;0.00;0.00;0.62;0.00;0.00;0.62;3.10;2.73;;;28.50;28.20;;;;;;2266714;61;20367;-55
2023/09/04 00:22:32;0.00;0.00;0.62;0.00;0.00;0.62;7.10;2.93;;;28.50;28.30;;;;;;2266426;61;20570;-50
2023/09/04 00:25:17;0.00;0.00;0.62;0.00;0.00;0.62;2.60;2.17;;;28.50;28.30;;;;;;2266166;61;20418;-55
2023/09/04 00:28:03;0.00;0.00;0.62;0.00;0.00;0.62;3.17;2.57;;;28.50;28.30;;;;;;2265975;61;20395;-54
2023/09/04 00:30:49;0.00;0.00;0.62;0.00;0.00;0.62;3.83;2.97;;;28.50;28.30;;;;;;2265997;61;20443;-54
2023/09/04 00:33:35;0.00;0.00;0.62;0.00;0.00;0.62;3.77;2.97;;;28.50;28.30;;;;;;2265957;61;20409;-53
2023/09/04 00:36:19;0.00;0.00;0.62;0.00;0.00;0.62;3.03;2.43;;;28.50;28.30;;;;;;2265974;61;20430;-57
2023/09/04 00:39:04;0.00;0.00;0.62;0.00;0.00;0.62;3.20;2.83;;;28.50;28.30;;;;;;2265633;61;20414;-54
2023/09/04 00:41:49;0.00;0.00;0.62;0.00;0.00;0.62;3.90;2.57;;;28.50;28.30;;;;;;2265236;61;21016;-56
2023/09/04 00:44:34;0.00;0.00;0.62;0.00;0.00;0.62;3.23;2.53;;;28.50;28.30;;;;;;2265096;61;20446;-58
2023/09/04 00:47:23;0.00;0.00;0.62;0.00;0.00;0.62;3.70;2.60;;;28.40;28.20;;;;;;2265146;61;20445;-56
2023/09/04 00:50:13;0.00;0.00;0.62;0.00;0.00;0.62;3.07;2.60;;;28.40;28.20;;;;;;2265942;61;20368;-55
2023/09/04 00:53:02;0.00;0.00;0.62;0.00;0.00;0.62;3.37;2.57;;;28.40;28.20;;;;;;2265962;61;20368;-54
2023/09/04 00:55:47;0.00;0.00;0.62;0.00;0.00;0.62;3.17;2.63;;;28.40;28.20;;;;;;2266310;61;20415;-52
2023/09/04 00:58:34;0.00;0.00;0.62;0.00;0.00;0.62;4.17;2.83;;;28.40;28.20;;;;;;2266536;61;20392;-55
2023/09/04 01:01:20;0.00;0.00;0.62;0.00;0.00;0.62;4.10;2.73;;;28.40;28.20;;;;;;2266080;61;20363;-56
2023/09/04 01:04:06;0.00;0.00;0.62;0.00;0.00;0.62;3.53;3.07;;;28.40;28.20;;;;;;2265518;61;20407;-55
2023/09/04 01:06:52;0.00;0.00;0.62;0.00;0.00;0.62;3.97;3.00;;;28.40;28.20;;;;;;2265893;61;20364;-57
2023/09/04 01:09:38;0.00;0.00;0.62;0.00;0.00;0.62;3.37;3.00;;;28.40;28.20;;;;;;2266490;61;20809;-54
2023/09/04 01:12:29;0.00;0.00;0.62;0.00;0.00;0.62;3.00;2.50;;;28.40;28.20;;;;;;2266112;61;20406;-53
2023/09/04 01:15:14;0.00;0.00;0.62;0.00;0.00;0.62;3.20;2.90;;;28.40;28.20;;;;;;2266013;61;20384;-57
2023/09/04 01:18:02;0.00;0.00;0.62;0.00;0.00;0.62;3.20;2.80;;;28.40;28.20;;;;;;2266294;61;20380;-52
2023/09/04 01:21:02;0.00;0.00;0.62;0.00;0.00;0.62;2.83;2.53;;;28.40;28.20;;;;;;2265486;61;20364;-55
2023/09/04 01:23:47;0.00;0.00;0.62;0.00;0.00;0.62;2.60;2.40;;;28.40;28.20;;;;;;2265414;61;20372;-55
2023/09/04 01:26:38;0.00;0.00;0.62;0.00;0.00;0.62;2.60;2.33;;;28.30;28.20;;;;;;2265870;61;20379;-52
2023/09/04 01:29:30;0.00;0.00;0.62;0.00;0.00;0.62;3.27;2.60;;;28.30;28.20;;;;;;2266030;61;20869;-56
2023/09/04 01:32:27;0.00;0.00;0.62;0.00;0.00;0.62;3.77;2.90;;;28.30;28.20;;;;;;2266176;61;20565;-55
2023/09/04 01:35:13;0.00;0.00;0.62;0.00;0.00;0.62;3.93;2.80;;;28.30;28.20;;;;;;2264900;61;20398;-51
2023/09/04 01:38:00;0.00;0.00;0.62;0.00;0.00;0.62;3.50;2.63;;;28.30;28.20;;;;;;2266435;61;20360;-55
2023/09/04 01:40:50;0.00;0.00;0.62;0.00;0.00;0.62;3.20;2.43;;;28.30;28.20;;;;;;2266311;61;20356;-53
2023/09/04 01:43:35;0.00;0.00;0.62;0.00;0.00;0.62;3.63;2.50;;;28.30;28.70;;;;;;2264727;61;20414;-55
2023/09/04 01:46:20;0.00;0.00;0.62;0.00;0.00;0.62;3.07;2.70;;;28.30;28.10;;;;;;2262862;61;20441;-57
2023/09/04 01:49:05;0.00;0.00;0.62;0.00;0.00;0.62;3.30;2.50;;;28.30;28.20;;;;;;2263379;61;20387;-56
2023/09/04 01:51:51;0.00;0.00;0.62;0.00;0.00;0.62;3.23;2.60;;;28.30;28.20;;;;;;2261686;61;20369;-52
2023/09/04 01:54:37;0.00;0.00;0.62;0.00;0.00;0.62;2.50;2.30;;;28.30;28.10;;;;;;2260242;61;20396;-50
2023/09/04 01:57:22;0.00;0.00;0.62;0.00;0.00;0.62;3.27;2.77;;;28.20;28.10;;;;;;2265324;61;20859;-54
2023/09/04 02:00:09;0.00;0.00;0.62;0.00;0.00;0.62;2.80;2.27;;;28.20;28.60;;;;;;2265678;61;20402;-59
2023/09/04 02:02:59;0.00;0.00;0.62;0.00;0.00;0.62;3.70;2.20;;;28.30;28.10;;;;;;2266006;61;20403;-56
2023/09/04 02:05:44;0.00;0.00;0.62;0.00;0.00;0.62;2.50;2.30;;;28.20;28.00;;;;;;2266417;61;20380;-53
2023/09/04 02:08:28;0.00;0.00;0.62;0.00;0.00;0.62;2.17;1.83;;;28.20;28.00;;;;;;2266275;61;20410;-54
2023/09/04 02:11:14;0.00;0.00;0.62;0.00;0.00;0.62;2.87;2.37;;;28.20;28.00;;;;;;2265846;61;20372;-57
2023/09/04 02:13:59;0.00;0.00;0.62;0.00;0.00;0.62;2.70;2.30;;;28.20;28.10;;;;;;2265419;61;21012;-57
2023/09/04 02:16:44;0.00;0.00;0.62;0.00;0.00;0.62;3.63;2.60;;;28.20;28.10;;;;;;2265762;61;20391;-65
2023/09/04 02:19:29;0.00;0.00;0.62;0.00;0.00;0.62;3.70;2.80;;;28.20;28.00;;;;;;2265225;61;20368;-53
2023/09/04 02:22:14;0.00;0.00;0.62;0.00;0.00;0.62;3.53;2.00;;;28.20;28.00;;;;;;2265988;61;20409;-55
2023/09/04 02:25:00;0.00;0.00;0.62;0.00;0.00;0.62;4.73;2.17;;;28.20;28.10;;;;;;2265188;61;20460;-55
2023/09/04 02:27:47;0.00;0.00;0.62;0.00;0.00;0.62;2.80;2.20;;;28.20;28.00;;;;;;2265413;61;20364;-57
2023/09/04 02:30:31;0.00;0.00;0.62;0.00;0.00;0.62;3.13;2.53;;;28.20;28.00;;;;;;2266041;61;20425;-58
2023/09/04 02:33:16;0.00;0.00;0.62;0.00;0.00;0.62;2.63;2.00;;;28.20;28.10;;;;;;2265265;61;20418;-53
2023/09/04 02:36:01;0.00;0.00;0.62;0.00;0.00;0.62;2.73;2.43;;;28.10;28.00;;;;;;2265717;61;20510;-57
2023/09/04 02:38:46;0.00;0.00;0.62;0.00;0.00;0.62;3.00;2.23;;;28.10;28.00;;;;;;2266174;61;20816;-55
2023/09/04 02:41:31;0.00;0.00;0.62;0.00;0.00;0.62;3.33;2.47;;;28.10;28.00;;;;;;2265268;61;20422;-57
2023/09/04 02:44:17;0.00;0.00;0.62;0.00;0.00;0.62;2.27;2.03;;;28.10;28.00;;;;;;2266108;61;20400;-56
2023/09/04 02:47:01;0.00;0.00;0.62;0.00;0.00;0.62;2.60;2.30;;;28.10;28.00;;;;;;2266086;61;20791;-53
2023/09/04 02:49:46;0.00;0.00;0.62;0.00;0.00;0.62;2.60;2.00;;;28.10;28.00;;;;;;2265554;61;20684;-54
2023/09/04 02:52:31;0.00;0.00;0.62;0.00;0.00;0.62;2.90;2.10;;;28.10;28.00;;;;;;2265677;61;20943;-56
2023/09/04 02:55:16;0.00;0.00;0.62;0.00;0.00;0.62;2.50;2.13;;;28.10;28.00;;;;;;2265652;61;20384;-58
2023/09/04 02:58:01;0.00;0.00;0.62;0.00;0.00;0.62;2.20;1.70;;;28.10;28.00;;;;;;2266096;61;20359;-56
2023/09/04 03:00:47;0.00;0.00;0.62;0.00;0.00;0.62;2.40;1.80;;;28.10;28.00;;;;;;2265916;61;20356;-56
2023/09/04 03:03:32;0.00;0.00;0.62;0.00;0.00;0.62;2.70;2.20;;;28.10;28.00;;;;;;2265375;61;20399;-53
2023/09/04 03:06:17;0.00;0.00;0.62;0.00;0.00;0.62;2.70;2.00;;;28.10;28.00;;;;;;2266264;61;20379;-55
2023/09/04 03:09:02;0.00;0.00;0.62;0.00;0.00;0.62;2.40;2.03;;;28.00;27.90;;;;;;2265446;61;20411;-56
2023/09/04 03:11:50;0.00;0.00;0.62;0.00;0.00;0.62;1.90;1.70;;;28.10;28.00;;;;;;2265277;61;20363;-59
2023/09/04 03:14:36;0.00;0.00;0.62;0.00;0.00;0.62;2.37;1.90;;;28.00;28.00;;;;;;2265038;61;20387;-52
2023/09/04 03:17:22;0.00;0.00;0.62;0.00;0.00;0.62;2.73;2.30;;;28.00;27.90;;;;;;2265284;61;20391;-57
2023/09/04 03:20:10;0.00;0.00;0.62;0.00;0.00;0.62;2.40;1.93;;;28.00;27.90;;;;;;2265501;61;20367;-55
2023/09/04 03:22:55;0.00;0.00;0.62;0.00;0.00;0.62;2.27;1.97;;;28.00;27.90;;;;;;2265349;61;20364;-57
2023/09/04 03:25:40;0.00;0.00;0.62;0.00;0.00;0.62;3.03;2.13;;;28.00;28.00;;;;;;2264865;61;20388;-57
2023/09/04 03:28:26;0.00;0.00;0.62;0.00;0.00;0.62;2.00;1.60;;;28.00;27.90;;;;;;2265309;61;20576;-59
2023/09/04 03:31:15;0.00;0.00;0.62;0.00;0.00;0.62;2.20;2.00;;;28.00;27.90;;;;;;2265254;61;20920;-55
2023/09/04 03:34:01;0.00;0.00;0.62;0.00;0.00;0.62;2.20;1.90;;;28.00;28.00;;;;;;2264700;61;20453;-56
2023/09/04 03:36:48;0.00;0.00;0.62;0.00;0.00;0.62;2.63;2.20;;;28.00;28.00;;;;;;2266063;61;20391;-55
2023/09/04 03:39:36;0.00;0.00;0.62;0.00;0.00;0.62;2.03;1.70;;;28.00;28.00;;;;;;2266562;61;20370;-56
2023/09/04 03:42:21;0.00;0.00;0.62;0.00;0.00;0.62;2.70;2.00;;;28.00;28.00;;;;;;2266213;61;20480;-56
2023/09/04 03:45:07;0.00;0.00;0.62;0.00;0.00;0.62;2.30;2.10;;;27.90;27.90;;;;;;2265595;61;20778;-55
2023/09/04 03:47:52;0.00;0.00;0.62;0.00;0.00;0.62;2.20;1.90;;;28.00;28.00;;;;;;2265988;61;20811;-57
2023/09/04 03:50:39;0.00;0.00;0.62;0.00;0.00;0.62;2.67;2.03;;;28.00;28.00;;;;;;2266476;61;20449;-53
2023/09/04 03:53:23;0.00;0.00;0.62;0.00;0.00;0.62;2.27;1.70;;;27.90;27.90;;;;;;2265561;61;20500;-54
2023/09/04 03:56:10;0.00;0.00;0.62;0.00;0.00;0.62;2.00;1.60;;;27.90;27.90;;;;;;2265660;61;20529;-54
2023/09/04 03:58:55;0.00;0.00;0.62;0.00;0.00;0.62;2.10;1.73;;;27.90;27.90;;;;;;2265966;61;20363;-53
2023/09/04 04:01:40;0.00;0.00;0.62;0.00;0.00;0.62;2.00;1.47;;;27.90;27.90;;;;;;2266543;61;20460;-58
2023/09/04 04:04:25;0.00;0.00;0.62;0.00;0.00;0.62;2.83;2.20;;;27.90;27.90;;;;;;2265601;61;20847;-52
2023/09/04 04:07:11;0.00;0.00;0.62;0.00;0.00;0.62;2.67;2.03;;;27.90;27.90;;;;;;2266177;61;20379;-52
2023/09/04 04:09:57;0.00;0.00;0.62;0.00;0.00;0.62;3.00;2.00;;;27.90;27.90;;;;;;2265299;61;20352;-53
2023/09/04 04:12:42;0.00;0.00;0.62;0.00;0.00;0.62;2.60;2.10;;;27.90;27.90;;;;;;2262330;61;20894;-57
2023/09/04 04:15:27;0.00;0.00;0.62;0.00;0.00;0.62;3.17;2.20;;;27.90;27.90;;;;;;2264668;61;20379;-54
2023/09/04 04:18:11;0.00;0.00;0.62;0.00;0.00;0.62;2.37;1.93;;;27.90;27.90;;;;;;2264884;61;20946;-54
2023/09/04 04:20:56;0.00;0.00;0.62;0.00;0.00;0.62;2.50;1.93;;;27.90;27.90;;;;;;2265153;61;20418;-56
2023/09/04 04:23:42;0.00;0.00;0.62;0.00;0.00;0.62;3.43;1.93;;;27.80;27.80;;;;;;2264867;61;20893;-55
2023/09/04 04:26:27;0.00;0.00;0.62;0.00;0.00;0.62;2.27;1.80;;;27.80;27.80;;;;;;2266273;61;20376;-52
2023/09/04 04:29:11;0.00;0.00;0.62;0.00;0.00;0.62;2.30;1.90;;;27.80;27.90;;;;;;2266279;61;20422;-55
2023/09/04 04:31:56;0.00;0.00;0.62;0.00;0.00;0.62;3.03;2.30;;;27.80;27.90;;;;;;2265584;61;20363;-56
2023/09/04 04:34:41;0.00;0.00;0.62;0.00;0.00;0.62;2.10;1.80;;;27.80;27.80;;;;;;2265158;61;20387;-56
2023/09/04 04:37:30;0.00;0.00;0.62;0.00;0.00;0.62;2.20;1.97;;;27.80;27.90;;;;;;2265755;61;20384;-53
2023/09/04 04:40:21;0.00;0.00;0.62;0.00;0.00;0.62;2.10;1.90;;;27.80;27.90;;;;;;2265608;61;20364;-51
2023/09/04 04:43:07;0.00;0.00;0.62;0.00;0.00;0.62;2.30;2.00;;;27.80;27.90;;;;;;2265953;61;20376;-58
2023/09/04 04:45:53;0.00;0.00;0.62;0.00;0.00;0.62;2.53;1.93;;;27.80;27.90;;;;;;2265695;61;20375;-57
2023/09/04 04:48:37;0.00;0.00;0.62;0.00;0.00;0.62;3.53;2.00;;;27.70;27.80;;;;;;2265643;61;20906;-56
2023/09/04 04:51:22;0.00;0.00;0.62;0.00;0.00;0.62;2.00;1.80;;;27.70;27.80;;;;;;2265823;61;20417;-51
2023/09/04 04:54:08;0.00;0.00;0.62;0.00;0.00;0.62;2.80;2.10;;;27.80;27.90;;;;;;2265224;61;20802;-58
2023/09/04 04:56:54;0.00;0.00;0.62;0.00;0.00;0.62;2.50;2.00;;;27.70;27.80;;;;;;2266232;61;20527;-57
2023/09/04 04:59:39;0.00;0.00;0.62;0.00;0.00;0.62;3.43;2.07;;;27.70;27.80;;;;;;2266087;61;20368;-55
2023/09/04 05:02:24;0.00;0.00;0.62;0.00;0.00;0.62;2.60;2.03;;;27.70;27.90;;;;;;2262812;61;20363;-54
2023/09/04 05:05:10;0.00;0.00;0.62;0.00;0.00;0.62;2.43;1.87;;;27.70;27.90;;;;;;2265265;61;21009;-55
2023/09/04 05:07:56;0.00;0.00;0.62;0.00;0.00;0.62;2.87;2.17;;;27.70;27.90;;;;;;2266267;61;20831;-53
2023/09/04 05:10:41;0.00;0.00;0.62;0.00;0.00;0.62;2.40;2.10;;;27.70;27.90;;;;;;2265946;61;20356;-53
2023/09/04 05:13:28;0.00;0.00;0.62;0.00;0.00;0.62;3.97;2.30;;;27.70;27.90;;;;;;2265492;61;20494;-55
2023/09/04 05:16:13;0.00;0.00;0.62;0.00;0.00;0.62;2.03;1.83;;;27.70;27.90;;;;;;2265471;61;21070;-55
2023/09/04 05:18:58;0.00;0.00;0.62;0.00;0.00;0.62;2.13;1.80;;;27.70;27.90;;;;;;2265582;61;20364;-53
2023/09/04 05:21:42;0.00;0.00;0.62;0.00;0.00;0.62;2.17;1.80;;;27.70;27.90;;;;;;2266081;61;20364;-55
2023/09/04 05:24:27;0.00;0.00;0.62;0.00;0.00;0.62;2.23;2.03;;;27.70;27.90;;;;;;2265510;61;20471;-56
2023/09/04 05:27:12;0.00;0.00;0.62;0.00;0.00;0.62;2.73;2.20;;;27.70;27.90;;;;;;2265293;61;20884;-54
2023/09/04 05:29:58;0.00;0.00;0.62;0.00;0.00;0.62;2.67;2.27;;;27.60;27.90;;;;;;2266124;61;20364;-57
2023/09/04 05:32:42;0.00;0.00;0.62;0.00;0.00;0.62;2.80;2.40;;;27.60;27.90;;;;;;2265980;61;20906;-54
2023/09/04 05:35:27;0.00;0.00;0.62;0.00;0.00;0.62;3.57;2.60;;;27.70;28.00;;;;;;2265679;61;20387;-56
2023/09/04 05:38:12;0.00;0.00;0.62;0.00;0.00;0.62;2.90;2.40;;;27.70;28.00;;;;;;2265406;61;20368;-56
2023/09/04 05:41:00;0.00;0.00;0.62;0.00;0.00;0.62;3.10;2.43;;;27.70;28.00;;;;;;2266066;61;20409;-50
2023/09/04 05:43:45;0.00;0.00;0.62;0.00;0.00;0.62;3.30;2.80;;;27.60;28.00;;;;;;2265134;61;20794;-54
2023/09/04 05:46:32;0.00;0.00;0.62;0.00;0.00;0.62;2.83;2.00;;;27.60;28.00;;;;;;2265765;61;20356;-52
2023/09/04 05:49:17;0.00;0.00;0.62;0.00;0.00;0.62;2.60;2.40;;;27.60;28.00;;;;;;2266055;61;20805;-56
2023/09/04 05:52:03;0.00;0.00;0.62;0.00;0.00;0.62;3.00;2.53;;;27.60;28.00;;;;;;2266026;61;20363;-54
2023/09/04 05:54:47;0.00;0.00;0.62;0.00;0.00;0.62;4.37;2.57;;;27.60;28.00;;;;;;2265629;61;20411;-56
2023/09/04 05:57:32;0.00;0.00;0.62;0.00;0.00;0.62;2.60;2.40;;;27.60;28.00;;;;;;2265558;61;20387;-55
2023/09/04 06:00:17;0.00;0.00;0.62;0.00;0.00;0.62;3.03;2.43;;;27.60;28.00;;;;;;2265297;61;20406;-54
2023/09/04 06:03:04;0.00;0.00;0.62;0.00;0.00;0.62;3.83;2.60;;;27.60;28.00;;;;;;2266005;61;20890;-51
2023/09/04 06:05:48;0.00;0.00;0.62;0.00;0.00;0.62;3.77;2.53;;;27.60;28.00;;;;;;2266041;61;20384;-53
2023/09/04 06:08:34;0.00;0.00;0.62;0.00;0.00;0.62;3.30;2.60;;;27.60;28.00;;;;;;2266002;61;20914;-52
2023/09/04 06:11:19;0.00;0.00;0.62;0.00;0.00;0.62;3.77;2.90;;;27.60;28.10;;;;;;2265653;61;20891;-58
2023/09/04 06:14:04;0.00;0.00;0.62;0.00;0.00;0.62;3.20;2.73;;;27.60;28.10;;;;;;2265770;61;20777;-55
2023/09/04 06:16:48;0.00;0.00;0.62;0.00;0.00;0.62;4.50;3.20;;;27.60;28.10;;;;;;2265728;61;20395;-50
2023/09/04 06:19:36;0.00;0.00;0.62;0.00;0.00;0.62;3.20;2.90;;;27.60;28.10;;;;;;2266138;61;20371;-56
2023/09/04 06:22:21;0.00;0.00;0.62;0.00;0.00;0.62;3.50;2.77;;;27.60;28.20;;;;;;2265479;61;20948;-54
2023/09/04 06:25:08;0.00;0.00;0.62;0.00;0.00;0.62;3.50;3.20;;;27.60;28.20;;;;;;2265528;61;20383;-55
2023/09/04 06:27:52;0.00;0.00;0.62;0.00;0.00;0.62;3.83;3.30;;;27.60;28.20;;;;;;2265671;61;20367;-53
2023/09/04 06:30:37;0.00;0.00;0.62;0.00;0.00;0.62;3.90;3.17;;;27.60;28.20;;;;;;2265728;61;20383;-49
2023/09/04 06:33:24;0.00;0.00;0.62;0.00;0.00;0.62;3.60;3.10;;;27.60;28.20;;;;;;2265506;61;20363;-55
2023/09/04 06:36:10;0.00;0.00;0.62;0.00;0.00;0.62;4.13;3.40;;;27.60;28.20;;;;;;2265610;61;20443;-50
2023/09/04 06:38:55;0.00;0.00;0.62;0.00;0.00;0.62;4.10;3.07;;;27.60;28.20;;;;;;2265023;61;20422;-55
2023/09/04 06:41:41;0.00;0.00;0.62;0.00;0.00;0.62;3.70;2.80;;;27.60;28.20;;;;;;2265354;61;20364;-57
2023/09/04 06:44:27;0.00;0.00;0.62;0.00;0.00;0.62;3.63;3.33;;;27.60;28.20;;;;;;2265668;61;20379;-55
2023/09/04 06:47:14;0.00;0.00;0.62;0.00;0.00;0.62;3.67;2.97;;;27.60;28.20;;;;;;2265895;61;20394;-52
2023/09/04 06:50:01;0.00;0.00;0.62;0.00;0.00;0.62;4.30;3.27;;;27.60;28.20;;;;;;2265689;61;20383;-56
2023/09/04 06:52:47;0.00;0.00;0.62;0.00;0.00;0.62;4.90;3.27;;;27.60;28.20;;;;;;2265656;61;20894;-56
2023/09/04 06:55:32;0.00;0.00;0.62;0.00;0.00;0.62;4.13;3.30;;;27.60;28.20;;;;;;2265285;61;20949;-52
2023/09/04 06:58:17;0.00;0.00;0.62;0.00;0.00;0.62;4.50;3.90;;;27.60;28.30;;;;;;2265933;61;20364;-50
2023/09/04 07:01:02;0.00;0.00;0.62;0.00;0.00;0.62;4.30;3.10;;;27.60;28.30;;;;;;2265549;61;20442;-52
2023/09/04 07:03:47;0.00;0.00;0.62;0.00;0.00;0.62;4.50;3.80;;;27.60;28.30;;;;;;2265510;61;20383;-55
2023/09/04 07:06:32;0.00;0.00;0.62;0.00;0.00;0.62;4.93;3.93;;;27.60;28.30;;;;;;2265545;61;20383;-53
2023/09/04 07:09:18;0.00;0.00;0.62;0.00;0.00;0.62;4.10;3.50;;;27.60;28.30;;;;;;2265510;61;20395;-55
2023/09/04 07:12:05;0.00;0.00;0.62;0.00;0.00;0.62;3.90;3.50;;;27.60;28.30;;;;;;2265420;61;20364;-57
2023/09/04 07:14:51;0.00;0.00;0.62;0.00;0.00;0.62;4.50;3.93;;;27.60;28.30;;;;;;2264895;61;20399;-56
2023/09/04 07:17:36;0.00;0.00;0.62;0.00;0.00;0.62;3.90;3.37;;;27.60;28.30;;;;;;2265440;61;20388;-56
2023/09/04 07:20:22;0.00;0.00;0.62;0.00;0.00;0.62;5.00;4.00;;;27.60;28.30;;;;;;2265700;61;20395;-53
2023/09/04 07:23:07;0.00;0.00;0.62;0.00;0.00;0.62;5.23;3.40;;;27.60;28.30;;;;;;2265471;61;20414;-56
2023/09/04 07:25:57;0.00;0.00;0.62;0.00;0.00;0.62;4.40;3.40;;;27.60;28.30;;;;;;2265501;61;20406;-56
2023/09/04 07:28:41;0.00;0.00;0.62;0.00;0.00;0.62;4.63;3.87;;;27.60;28.40;;;;;;2265672;61;20964;-56
2023/09/04 07:31:26;0.00;0.00;0.62;0.00;0.00;0.62;3.97;3.50;;;27.60;28.30;;;;;;2265300;61;20363;-54
2023/09/04 07:34:10;0.00;0.00;0.62;0.00;0.00;0.62;4.20;3.60;;;27.60;28.40;;;;;;2265267;61;20368;-56
2023/09/04 07:36:55;0.00;0.00;0.62;0.00;0.00;0.62;4.07;3.67;;;27.50;28.30;;;;;;2287219;57;20529;-55
2023/09/04 07:39:40;0.00;0.00;0.62;0.00;0.00;0.62;4.00;3.30;;;27.50;28.30;;;;;;2265658;61;20459;-50
2023/09/04 07:42:28;0.00;0.00;0.62;0.00;0.00;0.62;4.73;3.73;;;27.50;28.30;;;;;;2265554;61;20496;-55
2023/09/04 07:45:15;0.00;0.00;0.62;0.00;0.00;0.62;4.00;3.60;;;27.60;28.40;;;;;;2264755;61;20387;-55
2023/09/04 07:48:02;0.00;0.00;0.62;0.00;0.00;0.62;4.87;3.47;;;27.50;28.30;;;;;;2265200;61;20363;-55
2023/09/04 07:50:46;0.00;0.00;0.62;0.00;0.00;0.62;3.83;3.43;;;27.60;28.40;;;;;;2265222;61;20362;-54
2023/09/04 07:53:31;0.00;0.00;0.62;0.00;0.00;0.62;4.93;3.70;;;27.60;28.40;;;;;;2264568;61;20387;-56
2023/09/04 07:56:16;0.00;0.00;0.62;0.00;0.00;0.62;3.97;3.40;;;27.50;28.40;;;;;;2265169;61;20451;-53
2023/09/04 07:59:03;0.00;0.00;0.62;0.00;0.00;0.62;4.77;3.47;;;27.60;28.40;;;;;;2265275;61;20435;-55
2023/09/04 08:01:48;0.00;0.00;0.62;0.00;0.00;0.62;4.60;3.40;;;27.50;28.40;;;;;;2265543;61;20414;-56
2023/09/04 08:04:36;0.00;0.00;0.62;0.00;0.00;0.62;3.47;3.00;;;27.50;28.40;;;;;;2264571;61;20791;-56
2023/09/04 08:07:20;0.00;0.00;0.62;0.00;0.00;0.62;4.20;3.60;;;27.50;28.40;;;;;;2265286;61;20762;-55
2023/09/04 08:10:06;0.00;0.00;0.62;0.00;0.00;0.62;3.40;3.00;;;27.50;28.40;;;;;;2265486;61;20360;-53
2023/09/04 08:12:50;0.00;0.00;0.62;0.00;0.00;0.62;4.57;3.50;;;27.60;28.50;;;;;;2265706;61;20462;-55
2023/09/04 08:15:37;0.00;0.00;0.62;0.00;0.00;0.62;3.57;3.20;;;27.50;28.50;;;;;;2265365;61;20392;-59
2023/09/04 08:18:22;0.00;0.00;0.62;0.00;0.00;0.62;2.80;2.50;;;27.60;28.50;;;;;;2265083;61;20937;-55
2023/09/04 08:21:06;0.00;0.00;0.62;0.00;0.00;0.62;3.50;3.10;;;27.50;28.50;;;;;;2265622;61;20439;-55
2023/09/04 08:23:51;0.00;0.00;0.62;0.00;0.00;0.62;3.37;3.07;;;27.50;28.50;;;;;;2265844;61;20414;-56
2023/09/04 08:26:36;0.00;0.00;0.62;0.00;0.00;0.62;2.93;2.63;;;27.60;28.60;;;;;;2266183;61;20360;-57
2023/09/04 08:29:21;0.00;0.00;0.62;0.00;0.00;0.62;4.30;2.60;;;27.60;28.60;;;;;;2266077;61;20993;-51
2023/09/04 08:32:07;0.00;0.00;0.62;0.00;0.00;0.62;3.83;3.13;;;27.50;28.60;;;;;;2266336;61;20506;-53
2023/09/04 08:34:52;0.00;0.00;0.62;0.00;0.00;0.62;3.10;2.80;;;27.50;28.60;;;;;;2265999;61;20423;-55
2023/09/04 08:37:37;0.00;0.00;0.62;0.00;0.00;0.62;4.50;2.90;;;27.60;28.60;;;;;;2266048;61;20869;-55
2023/09/04 08:40:22;0.00;0.00;0.62;0.00;0.00;0.62;3.83;3.33;;;27.60;28.70;;;;;;2266450;61;20371;-56
2023/09/04 08:43:07;0.00;0.00;0.62;0.00;0.00;0.62;3.40;2.67;;;27.50;28.70;;;;;;2266380;61;20360;-54
2023/09/04 08:45:54;0.00;0.00;0.62;0.00;0.00;0.62;3.30;2.50;;;27.50;28.60;;;;;;2266384;61;20415;-52
2023/09/04 08:48:43;0.00;0.00;0.62;0.00;0.00;0.62;2.87;2.50;;;27.50;28.70;;;;;;2266760;61;20364;-51
2023/09/04 08:51:29;0.00;0.00;0.62;0.00;0.00;0.62;3.03;2.57;;;27.50;28.70;;;;;;2266022;61;20396;-57
2023/09/04 08:54:15;0.00;0.00;0.62;0.00;0.00;0.62;3.27;2.80;;;27.50;28.70;;;;;;2266204;61;20364;-56
2023/09/04 08:57:00;0.00;0.00;0.62;0.00;0.00;0.62;2.70;2.40;;;27.60;28.70;;;;;;2266101;61;20391;-58
2023/09/04 08:59:44;0.00;0.00;0.62;0.00;0.00;0.62;2.97;2.70;;;27.60;28.80;;;;;;2265965;61;20433;-58
2023/09/04 09:02:29;0.00;0.00;0.62;0.00;0.00;0.62;3.50;2.60;;;27.60;28.80;;;;;;2266426;61;20387;-56
2023/09/04 09:05:17;0.00;0.00;0.62;0.00;0.00;0.62;3.00;2.63;;;27.60;28.80;;;;;;2265999;61;20376;-54
2023/09/04 09:08:04;0.00;0.00;0.62;0.00;0.00;0.62;3.20;2.50;;;27.60;28.80;;;;;;2266423;61;21093;-56
2023/09/04 09:10:49;0.00;0.00;0.62;0.00;0.00;0.62;2.50;2.20;;;27.60;28.80;;;;;;2266166;61;20363;-57
2023/09/04 09:13:34;0.00;0.00;0.62;0.00;0.00;0.62;2.50;2.00;;;27.60;28.80;;;;;;2265608;61;20361;-57
2023/09/04 09:16:20;0.00;0.00;0.62;0.00;0.00;0.62;2.93;2.40;;;27.60;28.90;;;;;;2266650;61;20852;-56
2023/09/04 09:19:07;0.00;0.00;0.62;0.00;0.00;0.62;2.90;2.60;;;27.60;28.90;;;;;;2266126;61;20363;-57
2023/09/04 09:21:55;0.00;0.00;0.62;0.00;0.00;0.62;2.87;2.30;;;27.60;28.80;;;;;;2266284;61;20471;-62
2023/09/04 09:25:00;0.00;0.00;0.62;0.00;0.00;0.62;2.30;1.97;;;27.60;28.90;;;;;;2265696;61;20427;-54
2023/09/04 09:27:45;0.00;0.00;0.62;0.00;0.00;0.62;2.70;1.90;;;27.60;28.90;;;;;;2266234;61;20426;-55
2023/09/04 09:30:33;0.00;0.00;0.62;0.00;0.00;0.62;2.77;2.50;;;27.60;28.90;;;;;;2266322;61;20383;-54
2023/09/04 09:33:21;0.00;0.00;0.62;0.00;0.00;0.62;2.90;2.50;;;27.70;29.00;;;;;;2265590;61;20445;-53
2023/09/04 09:36:13;0.00;0.00;0.62;0.00;0.00;0.62;2.47;2.00;;;27.70;28.90;;;;;;2266027;61;20423;-56
2023/09/04 09:38:59;0.00;0.00;0.62;0.00;0.00;0.62;2.50;1.90;;;27.70;29.00;;;;;;2266317;61;20406;-57
2023/09/04 09:41:45;0.00;0.00;0.62;0.00;0.00;0.62;2.60;2.10;;;27.70;29.00;;;;;;2265772;61;20459;-57
2023/09/04 09:44:33;0.00;0.00;0.62;0.00;0.00;0.62;4.03;2.37;;;27.70;29.00;;;;;;2265823;61;20392;-55
2023/09/04 09:47:18;0.00;0.00;0.62;0.00;0.00;0.62;2.10;1.70;;;27.70;29.00;;;;;;2266287;61;20451;-54
2023/09/04 09:50:06;0.00;0.00;0.62;0.00;0.00;0.62;2.97;2.00;;;27.70;29.00;;;;;;2266390;61;20374;-55
2023/09/04 09:52:58;0.00;0.00;0.62;0.00;0.00;0.62;2.60;1.80;;;27.70;29.00;;;;;;2266469;61;20395;-53
2023/09/04 09:55:47;0.00;0.00;0.62;0.00;0.00;0.62;1.93;1.53;;;27.70;29.00;;;;;;2266369;61;20384;-56
2023/09/04 09:58:32;0.00;0.00;0.62;0.00;0.00;0.62;2.47;1.60;;;27.80;29.10;;;;;;2265430;61;20364;-56
2023/09/04 10:01:18;0.00;0.00;0.62;0.00;0.00;0.62;2.80;2.07;;;27.80;29.10;;;;;;2266447;61;20696;-57
2023/09/04 10:04:04;0.00;0.00;0.62;0.00;0.00;0.62;3.13;1.80;;;27.70;29.10;;;;;;2265742;61;20368;-56
2023/09/04 10:06:52;0.00;0.00;0.62;0.00;0.00;0.62;2.07;1.50;;;27.70;29.10;;;;;;2266333;61;20889;-57
2023/09/04 10:09:42;0.00;0.00;0.62;0.00;0.00;0.62;2.10;1.90;;;27.80;29.10;;;;;;2266320;61;20419;-53
2023/09/04 10:12:34;0.00;0.00;0.62;0.00;0.00;0.62;2.00;1.50;;;27.80;29.10;;;;;;2266250;61;20903;-54
2023/09/04 10:15:28;0.00;0.00;0.62;0.00;0.00;0.62;2.37;1.80;;;27.80;29.10;;;;;;2265972;61;20391;-56
2023/09/04 10:18:18;0.00;0.00;0.62;0.00;0.00;0.62;2.30;1.70;;;27.80;29.10;;;;;;2266201;61;20481;-57
2023/09/04 10:21:06;0.00;0.00;0.62;0.00;0.00;0.62;2.40;1.50;;;27.90;29.10;;;;;;2266257;61;20472;-55
2023/09/04 10:23:59;0.00;0.00;0.62;0.00;0.00;0.62;2.13;1.70;;;27.80;29.10;;;;;;2266100;61;20461;-52
2023/09/04 10:26:54;0.00;0.00;0.62;0.00;0.00;0.62;2.63;2.13;;;27.80;29.10;;;;;;2266138;61;20433;-53
2023/09/04 10:29:47;0.00;0.00;0.62;0.00;0.00;0.62;1.90;1.40;;;27.90;29.20;;;;;;2266173;61;20372;-57
2023/09/04 10:32:33;0.00;0.00;0.62;0.00;0.00;0.62;2.10;1.63;;;27.90;29.20;;;;;;2266177;61;20459;-57
2023/09/04 10:35:18;0.00;0.00;0.62;0.00;0.00;0.62;3.07;2.07;;;27.90;29.20;;;;;;2265887;61;20388;-55
2023/09/04 10:38:04;0.00;0.00;0.62;0.00;0.00;0.62;2.20;1.73;;;27.90;29.20;;;;;;2266393;61;20929;-51
2023/09/04 10:40:50;0.00;0.00;0.62;0.00;0.00;0.62;1.80;1.53;;;27.90;29.20;;;;;;2266485;61;20451;-57
2023/09/04 10:43:38;0.00;0.00;0.62;0.00;0.00;0.62;2.13;1.77;;;27.90;29.20;;;;;;2265599;61;20372;-55
2023/09/04 10:46:25;0.00;0.00;0.62;0.00;0.00;0.62;2.33;1.80;;;28.00;29.20;;;;;;2266659;61;20398;-52
2023/09/04 10:49:12;0.00;0.00;0.62;0.00;0.00;0.62;2.30;1.80;;;28.00;29.30;;;;;;2266374;61;20368;-56
2023/09/04 10:51:57;0.00;0.00;0.62;0.00;0.00;0.62;2.13;1.83;;;28.00;29.30;;;;;;2266335;61;21085;-58
2023/09/04 10:54:42;0.00;0.00;0.62;0.00;0.00;0.62;2.43;1.70;;;28.00;29.30;;;;;;2265715;61;20529;-61